Time;durP1;ratioP1;P1;durP2;ratioP2;P2;SDS_P1;SDS_P2;PMS_P1;PMS_P2;Temp;Humidity;BMP_temperature;BMP_pressure;BME280_temperature;BME280_humidity;BME280_pressure;Samples;Min_cycle;Max_cycle;Signal;HPM_P1;HPM_P2
2021/01/31 00:02:25;;;;;;;45.97;15.57;;;-3.00;99.90;;;;;;5028874;28;20057;-79
2021/01/31 00:04:52;;;;;;;43.08;15.27;;;-3.00;99.90;;;;;;5027918;28;20068;-80
2021/01/31 00:07:19;;;;;;;47.08;15.30;;;-3.00;99.90;;;;;;5024042;28;20155;-79
2021/01/31 00:09:49;;;;;;;46.70;15.75;;;-3.00;99.90;;;;;;5041792;28;20111;-79
2021/01/31 00:12:15;;;;;;;44.10;14.35;;;-3.00;99.90;;;;;;5024254;28;20467;-79
2021/01/31 00:14:41;;;;;;;25.73;10.18;;;-3.00;99.90;;;;;;5023735;28;20053;-79
2021/01/31 00:17:07;;;;;;;26.83;11.10;;;-3.10;99.90;;;;;;5023880;28;20484;-79
2021/01/31 00:19:35;;;;;;;38.80;14.25;;;-3.10;99.90;;;;;;5021142;28;20638;-80
2021/01/31 00:22:02;;;;;;;48.95;15.68;;;-3.10;99.90;;;;;;5025592;28;20482;-80
2021/01/31 00:24:30;;;;;;;45.42;15.40;;;-3.10;99.90;;;;;;5025549;28;20049;-79
2021/01/31 00:26:57;;;;;;;38.33;13.57;;;-3.10;99.90;;;;;;5026233;28;20408;-79
2021/01/31 00:29:24;;;;;;;50.42;16.85;;;-3.10;99.90;;;;;;5020327;28;20551;-80
2021/01/31 00:31:51;;;;;;;50.55;16.45;;;-3.10;99.90;;;;;;5024519;28;20076;-79
2021/01/31 00:34:18;;;;;;;46.28;16.92;;;-3.10;99.90;;;;;;5038139;28;20061;-79
2021/01/31 00:36:46;;;;;;;42.00;15.23;;;-3.10;99.90;;;;;;5024403;28;20535;-80
2021/01/31 00:39:12;;;;;;;44.53;15.57;;;-3.10;99.90;;;;;;5024640;28;20136;-79
2021/01/31 00:41:39;;;;;;;49.33;16.48;;;-3.10;99.90;;;;;;5034512;28;20051;-80
2021/01/31 00:44:07;;;;;;;45.42;16.13;;;-3.10;99.90;;;;;;5023942;28;20140;-79
2021/01/31 00:46:41;;;;;;;47.67;16.63;;;-3.20;99.90;;;;;;5023700;28;20126;-79
2021/01/31 00:49:09;;;;;;;52.15;15.60;;;-3.20;99.90;;;;;;5023295;28;20052;-80
2021/01/31 00:51:36;;;;;;;42.80;16.00;;;-3.20;99.90;;;;;;5022976;28;20105;-79
2021/01/31 00:54:03;;;;;;;54.08;17.15;;;-3.20;99.90;;;;;;5024509;28;20412;-80
2021/01/31 00:56:32;;;;;;;42.42;14.43;;;-3.20;99.90;;;;;;5026894;28;20052;-79
2021/01/31 00:58:58;;;;;;;45.70;16.50;;;-3.20;99.90;;;;;;5023249;28;20056;-80
2021/01/31 01:01:24;;;;;;;46.28;16.17;;;-3.20;99.90;;;;;;5026167;28;20049;-79
2021/01/31 01:03:50;;;;;;;49.05;16.98;;;-3.20;99.90;;;;;;5024144;28;20417;-80
2021/01/31 01:06:16;;;;;;;51.35;16.67;;;-3.20;99.90;;;;;;5027638;28;20049;-79
2021/01/31 01:08:43;;;;;;;50.38;16.35;;;-3.20;99.90;;;;;;5019164;28;20105;-80
2021/01/31 01:11:09;;;;;;;54.42;18.05;;;-3.20;99.90;;;;;;5024245;28;20059;-80
2021/01/31 01:13:35;;;;;;;47.20;15.68;;;-3.10;99.90;;;;;;5033557;28;20055;-79
2021/01/31 01:16:02;;;;;;;53.50;17.17;;;-3.20;99.90;;;;;;5028414;28;20053;-80
2021/01/31 01:18:28;;;;;;;44.65;16.02;;;-3.20;99.90;;;;;;5028658;28;20052;-79
2021/01/31 01:20:55;;;;;;;46.30;15.43;;;-3.20;99.90;;;;;;5025392;28;20045;-79
2021/01/31 01:23:21;;;;;;;41.55;15.10;;;-3.20;99.90;;;;;;5030995;28;20593;-79
2021/01/31 01:25:47;;;;;;;47.17;16.08;;;-3.20;99.90;;;;;;5029447;28;20621;-79
2021/01/31 01:28:14;;;;;;;49.53;16.83;;;-3.20;99.90;;;;;;5027162;28;20060;-78
2021/01/31 01:30:41;;;;;;;51.38;16.63;;;-3.20;99.90;;;;;;5029897;28;20105;-79
2021/01/31 01:33:07;;;;;;;54.30;16.75;;;-3.20;99.90;;;;;;5027169;28;20116;-79
2021/01/31 01:35:34;;;;;;;54.70;16.25;;;-3.20;99.90;;;;;;5025124;28;20485;-79
2021/01/31 01:38:00;;;;;;;52.67;18.05;;;-3.20;99.90;;;;;;5025533;28;20370;-79
2021/01/31 01:40:37;;;;;;;49.53;16.48;;;-3.20;99.90;;;;;;5028065;28;20172;-79
2021/01/31 01:43:04;;;;;;;49.10;15.13;;;-3.20;99.90;;;;;;5029614;28;20124;-79
2021/01/31 01:45:31;;;;;;;48.13;16.00;;;-3.20;99.90;;;;;;5020684;28;20121;-79
2021/01/31 01:48:27;;;;;;;50.17;16.45;;;-3.20;99.90;;;;;;5029136;28;20049;-79
2021/01/31 01:50:54;;;;;;;43.25;14.70;;;-3.20;99.90;;;;;;5018582;28;20049;-79
2021/01/31 01:53:22;;;;;;;62.67;18.00;;;-3.30;99.90;;;;;;5026916;28;20552;-79
2021/01/31 01:55:59;;;;;;;56.25;17.52;;;-3.30;99.90;;;;;;5025881;28;20053;-78
2021/01/31 01:58:28;;;;;;;55.95;16.85;;;-3.30;99.90;;;;;;5025263;28;20132;-79
2021/01/31 02:00:56;;;;;;;61.72;18.17;;;-3.30;99.90;;;;;;5027060;28;20052;-79
2021/01/31 02:03:27;;;;;;;50.42;16.80;;;-3.30;99.90;;;;;;5028436;28;20053;-79
2021/01/31 02:06:01;;;;;;;52.22;17.92;;;-3.30;99.90;;;;;;5028413;28;20049;-79
2021/01/31 02:08:28;;;;;;;54.78;19.23;;;-3.30;99.90;;;;;;5026626;28;20068;-79
2021/01/31 02:10:54;;;;;;;54.85;17.73;;;-3.30;99.90;;;;;;5011803;28;20128;-79
2021/01/31 02:13:21;;;;;;;53.33;18.67;;;-3.30;99.90;;;;;;5026529;28;20049;-79
2021/01/31 02:15:48;;;;;;;57.95;18.15;;;-3.30;99.90;;;;;;5029070;28;20136;-78
2021/01/31 02:18:46;;;;;;;60.33;18.13;;;-3.40;99.90;;;;;;5026185;28;20063;-79
2021/01/31 02:21:38;;;;;;;61.97;18.38;;;-3.40;99.90;;;;;;5026583;28;20068;-79
2021/01/31 02:24:23;;;;;;;49.80;15.75;;;-3.40;99.90;;;;;;5028323;28;20052;-78
2021/01/31 02:27:04;;;;;;;56.05;18.48;;;-3.40;99.90;;;;;;5025884;28;20402;-79
2021/01/31 02:30:19;;;;;;;54.60;17.08;;;-3.40;99.90;;;;;;5029108;28;20049;-79
2021/01/31 02:33:11;;;;;;;51.08;16.23;;;-3.40;99.90;;;;;;5026456;28;20508;-79
2021/01/31 02:35:40;;;;;;;61.85;17.83;;;-3.50;99.90;;;;;;5025688;28;20098;-79
2021/01/31 02:38:28;;;;;;;56.30;18.92;;;-3.50;99.90;;;;;;5025767;28;20105;-79
2021/01/31 02:41:06;;;;;;;59.60;17.85;;;-3.50;99.90;;;;;;5024790;28;20084;-78
2021/01/31 02:43:39;;;;;;;63.38;19.98;;;-3.50;99.90;;;;;;5028680;28;20568;-78
2021/01/31 02:46:35;;;;;;;56.70;18.42;;;-3.50;99.90;;;;;;5027503;28;20059;-79
2021/01/31 02:49:15;;;;;;;74.63;20.63;;;-3.60;99.90;;;;;;5019242;28;20152;-79
2021/01/31 02:52:02;;;;;;;56.85;17.25;;;-3.60;99.90;;;;;;5033606;28;20063;-79
2021/01/31 02:55:11;;;;;;;67.80;19.83;;;-3.60;99.90;;;;;;5033980;28;20049;-79
2021/01/31 02:57:51;;;;;;;67.57;18.65;;;-3.60;99.90;;;;;;5041089;28;20071;-79
2021/01/31 03:00:25;;;;;;;59.33;19.08;;;-3.60;99.90;;;;;;5040745;28;20140;-79
2021/01/31 03:03:04;;;;;;;54.35;16.83;;;-3.70;99.90;;;;;;5020655;28;20526;-79
2021/01/31 03:05:35;;;;;;;61.75;19.88;;;-3.70;99.90;;;;;;5027309;28;20061;-79
2021/01/31 03:08:10;;;;;;;64.53;19.65;;;-3.70;99.90;;;;;;5025495;28;20052;-79
2021/01/31 03:10:41;;;;;;;57.97;18.20;;;-3.70;99.90;;;;;;5025225;28;20099;-79
2021/01/31 03:13:15;;;;;;;67.15;19.08;;;-3.70;99.90;;;;;;5027661;28;20052;-80
2021/01/31 03:15:48;;;;;;;59.90;17.88;;;-3.70;99.90;;;;;;5024430;28;20129;-79
2021/01/31 03:18:39;;;;;;;60.10;19.23;;;-3.80;99.90;;;;;;5025336;28;20108;-79
2021/01/31 03:21:20;;;;;;;62.03;18.40;;;-3.80;99.90;;;;;;5024713;28;20145;-79
2021/01/31 03:23:55;;;;;;;66.53;19.02;;;-3.80;99.90;;;;;;5027854;28;20386;-79
2021/01/31 03:26:56;;;;;;;62.33;19.67;;;-3.80;99.90;;;;;;5026560;28;20436;-79
2021/01/31 03:29:23;;;;;;;63.42;19.13;;;-3.90;99.90;;;;;;5011359;28;20049;-79
2021/01/31 03:31:55;;;;;;;68.22;19.90;;;-3.90;99.90;;;;;;5010860;28;20079;-79
2021/01/31 03:34:28;;;;;;;63.20;19.17;;;-3.90;99.90;;;;;;5023302;28;20049;-79
2021/01/31 03:36:59;;;;;;;64.28;17.38;;;-3.90;99.90;;;;;;5026161;28;20119;-79
2021/01/31 03:39:28;;;;;;;69.05;19.42;;;-3.90;99.90;;;;;;5009710;28;20113;-78
2021/01/31 03:41:55;;;;;;;63.78;19.48;;;-3.90;99.90;;;;;;5027146;28;20057;-78
2021/01/31 03:44:22;;;;;;;73.22;22.08;;;-3.90;99.90;;;;;;5027625;28;20069;-79
2021/01/31 03:47:06;;;;;;;73.75;21.10;;;-3.90;99.90;;;;;;5005000;28;20172;-78
2021/01/31 03:49:39;;;;;;;65.28;18.90;;;-4.00;99.90;;;;;;5024004;28;20083;-79
2021/01/31 03:52:06;;;;;;;68.43;19.10;;;-4.00;99.90;;;;;;5017881;28;20497;-79
2021/01/31 03:54:32;;;;;;;72.40;20.33;;;-4.00;99.90;;;;;;5006733;28;20055;-78
2021/01/31 03:57:10;;;;;;;69.68;19.42;;;-4.00;99.90;;;;;;5009925;28;20047;-79
2021/01/31 03:59:50;;;;;;;59.63;19.45;;;-4.00;99.90;;;;;;5007518;28;20124;-78
2021/01/31 04:02:23;;;;;;;66.10;19.58;;;-4.00;99.90;;;;;;4981156;28;20063;-78
2021/01/31 04:04:50;;;;;;;60.20;17.23;;;-4.10;99.90;;;;;;5025744;28;20056;-79
2021/01/31 04:07:21;;;;;;;79.53;19.65;;;-4.10;99.90;;;;;;5016383;28;20049;-79
2021/01/31 04:09:48;;;;;;;63.38;18.17;;;-4.10;99.90;;;;;;5009740;28;20041;-78
2021/01/31 04:12:21;;;;;;;63.92;19.23;;;-4.10;99.90;;;;;;5026587;28;20080;-79
2021/01/31 04:15:14;;;;;;;59.47;17.35;;;-4.10;99.90;;;;;;5025116;28;20050;-79
2021/01/31 04:17:43;;;;;;;67.25;17.60;;;-4.10;99.90;;;;;;5024385;28;20041;-78
2021/01/31 04:20:10;;;;;;;61.58;18.58;;;-4.10;99.90;;;;;;5003770;28;20169;-79
2021/01/31 04:22:36;;;;;;;54.80;16.50;;;-4.10;99.90;;;;;;5028452;28;20049;-80
2021/01/31 04:25:04;;;;;;;77.13;21.85;;;-4.10;99.90;;;;;;5025249;28;20440;-80
2021/01/31 04:27:30;;;;;;;63.15;18.35;;;-4.20;99.90;;;;;;5009397;28;20178;-79
2021/01/31 04:29:56;;;;;;;66.07;19.90;;;-4.10;99.90;;;;;;5023025;28;20059;-79
2021/01/31 04:32:22;;;;;;;72.03;19.33;;;-4.10;99.90;;;;;;5026605;28;20083;-79
2021/01/31 04:34:49;;;;;;;57.65;17.85;;;-4.10;99.90;;;;;;5012057;28;20057;-79
2021/01/31 04:37:15;;;;;;;59.63;18.42;;;-4.20;99.90;;;;;;5012291;28;20053;-79
2021/01/31 04:39:41;;;;;;;68.40;19.63;;;-4.10;99.90;;;;;;5028821;28;20123;-79
2021/01/31 04:42:08;;;;;;;68.25;19.55;;;-4.20;99.90;;;;;;5030234;28;20117;-79
2021/01/31 04:44:34;;;;;;;46.42;14.95;;;-4.10;99.90;;;;;;5026713;28;20050;-79
2021/01/31 04:47:23;;;;;;;70.05;20.17;;;-4.20;99.90;;;;;;5010884;28;20738;-79
2021/01/31 04:50:11;;;;;;;67.95;19.83;;;-4.10;99.90;;;;;;5008686;28;20068;-79
2021/01/31 04:53:08;;;;;;;76.40;20.55;;;-4.10;99.90;;;;;;5018916;28;20099;-80
2021/01/31 04:56:06;;;;;;;68.28;21.35;;;-4.10;99.90;;;;;;5014883;28;20132;-80
2021/01/31 04:58:36;;;;;;;72.50;19.13;;;-4.10;99.90;;;;;;5024501;28;20385;-80
2021/01/31 05:01:14;;;;;;;63.65;19.05;;;-4.10;99.90;;;;;;5005438;28;20041;-81
2021/01/31 05:03:50;;;;;;;67.70;18.63;;;-4.10;99.90;;;;;;5001603;28;20053;-80
2021/01/31 05:06:18;;;;;;;71.60;18.85;;;-4.10;99.90;;;;;;5008343;28;20056;-80
2021/01/31 05:08:49;;;;;;;71.00;19.98;;;-4.10;99.90;;;;;;5006130;28;20107;-80
2021/01/31 05:11:39;;;;;;;72.35;20.13;;;-4.10;99.90;;;;;;5024879;28;20523;-78
2021/01/31 05:14:13;;;;;;;69.00;19.27;;;-4.10;99.90;;;;;;5022869;28;20400;-79
2021/01/31 05:16:41;;;;;;;77.00;21.02;;;-4.10;99.90;;;;;;5020341;28;20443;-78
2021/01/31 05:19:13;;;;;;;77.82;21.45;;;-4.10;99.90;;;;;;5005632;28;20049;-80
2021/01/31 05:21:41;;;;;;;62.80;20.27;;;-4.20;99.90;;;;;;5020231;28;20050;-79
2021/01/31 05:24:19;;;;;;;72.85;18.60;;;-4.20;99.90;;;;;;5024234;28;20072;-79
2021/01/31 05:26:53;;;;;;;56.70;17.52;;;-4.10;99.90;;;;;;5023655;28;20476;-80
2021/01/31 05:29:23;;;;;;;67.05;18.65;;;-4.20;99.90;;;;;;5020916;28;20417;-80
2021/01/31 05:31:56;;;;;;;66.90;19.83;;;-4.20;99.90;;;;;;4999591;28;20594;-80
2021/01/31 05:34:35;;;;;;;61.05;19.17;;;-4.20;99.90;;;;;;5000876;28;20426;-80
2021/01/31 05:37:07;;;;;;;79.53;20.75;;;-4.20;99.90;;;;;;5004221;28;20424;-80
2021/01/31 05:39:43;;;;;;;64.05;19.63;;;-4.20;99.90;;;;;;5021283;28;20119;-78
2021/01/31 05:42:16;;;;;;;66.63;18.23;;;-4.20;99.90;;;;;;5022377;28;20041;-79
2021/01/31 05:44:43;;;;;;;74.20;19.88;;;-4.20;99.90;;;;;;5016462;28;20037;-78
2021/01/31 05:47:24;;;;;;;61.55;20.33;;;-4.20;99.90;;;;;;5022229;28;20127;-79
2021/01/31 05:49:53;;;;;;;54.65;17.88;;;-4.20;99.90;;;;;;5021014;28;20060;-79
2021/01/31 05:52:22;;;;;;;59.78;18.15;;;-4.20;99.90;;;;;;5006648;28;20655;-78
2021/01/31 05:54:51;;;;;;;61.33;18.92;;;-4.20;99.90;;;;;;5024113;28;20053;-78
2021/01/31 05:57:30;;;;;;;60.65;17.55;;;-4.20;99.90;;;;;;5016341;28;20061;-79
2021/01/31 06:00:14;;;;;;;58.60;16.85;;;-4.20;99.90;;;;;;5007806;28;20055;-80
2021/01/31 06:02:40;;;;;;;65.97;19.33;;;-4.20;99.90;;;;;;5018634;28;20055;-79
2021/01/31 06:05:17;;;;;;;60.20;18.52;;;-4.20;99.90;;;;;;5012485;28;20064;-78
2021/01/31 06:07:45;;;;;;;67.30;18.75;;;-4.20;99.90;;;;;;5026794;28;20461;-79
2021/01/31 06:10:15;;;;;;;60.33;17.83;;;-4.20;99.90;;;;;;5027651;28;20049;-78
2021/01/31 06:12:45;;;;;;;67.55;20.08;;;-4.20;99.90;;;;;;5007998;28;21962;-78
2021/01/31 06:15:29;;;;;;;67.43;21.25;;;-4.20;99.90;;;;;;5027165;28;20044;-79
2021/01/31 06:18:01;;;;;;;56.00;18.23;;;-4.20;99.90;;;;;;5023736;28;20101;-79
2021/01/31 06:20:34;;;;;;;66.25;20.00;;;-4.20;99.90;;;;;;5028372;28;20132;-79
2021/01/31 06:23:03;;;;;;;68.00;20.20;;;-4.20;99.90;;;;;;5025541;28;20057;-80
2021/01/31 06:25:29;;;;;;;65.15;20.42;;;-4.20;99.90;;;;;;5011931;28;20128;-79
2021/01/31 06:28:07;;;;;;;65.88;19.38;;;-4.20;99.90;;;;;;5010873;28;20135;-79
2021/01/31 06:30:34;;;;;;;64.10;20.25;;;-4.30;99.90;;;;;;4995641;28;20053;-79
2021/01/31 06:33:01;;;;;;;57.58;18.45;;;-4.20;99.90;;;;;;5006662;28;20583;-79
2021/01/31 06:35:27;;;;;;;62.15;18.58;;;-4.30;99.90;;;;;;5005437;28;20493;-80
2021/01/31 06:38:55;;;;;;;66.65;20.10;;;-4.30;99.90;;;;;;4985849;28;20298;-79
2021/01/31 06:41:48;;;;;;;66.13;18.63;;;-4.40;99.90;;;;;;4974089;28;20530;-79
2021/01/31 06:44:21;;;;;;;65.40;19.33;;;-4.40;99.90;;;;;;4983447;28;20046;-79
2021/01/31 06:46:56;;;;;;;74.15;20.38;;;-4.40;99.90;;;;;;5000529;28;20277;-79
2021/01/31 06:49:44;;;;;;;54.40;17.20;;;-4.40;99.90;;;;;;4981601;28;20046;-79
2021/01/31 06:52:35;;;;;;;63.42;18.75;;;-4.40;99.90;;;;;;4983178;28;20042;-81
2021/01/31 06:55:11;;;;;;;52.92;16.88;;;-4.40;99.90;;;;;;4990626;28;20133;-79
2021/01/31 06:57:43;;;;;;;67.43;19.23;;;-4.40;99.90;;;;;;4983501;28;20060;-79
2021/01/31 07:00:36;;;;;;;64.68;19.55;;;-4.40;99.90;;;;;;5001125;28;20071;-79
2021/01/31 07:03:19;;;;;;;62.50;18.25;;;-4.40;99.90;;;;;;4984789;28;20045;-82
2021/01/31 07:06:22;;;;;;;60.75;19.23;;;-4.50;99.90;;;;;;4986364;28;20064;-79
2021/01/31 07:09:12;;;;;;;59.40;18.20;;;-4.50;99.90;;;;;;4998378;28;20920;-80
2021/01/31 07:12:03;;;;;;;65.25;20.45;;;-4.50;99.90;;;;;;4983133;28;20407;-80
2021/01/31 07:14:40;;;;;;;71.53;20.25;;;-4.50;99.90;;;;;;4983106;28;20077;-79
2021/01/31 07:17:25;;;;;;;70.70;21.73;;;-4.40;99.90;;;;;;4984802;28;20050;-80
2021/01/31 07:20:01;;;;;;;68.82;20.52;;;-4.40;99.90;;;;;;4989177;28;20600;-79
2021/01/31 07:22:30;;;;;;;70.60;20.98;;;-4.40;99.90;;;;;;4990003;28;20046;-78
2021/01/31 07:25:09;;;;;;;77.85;22.20;;;-4.40;99.90;;;;;;5004942;28;20054;-80
2021/01/31 07:27:50;;;;;;;61.63;19.42;;;-4.40;99.90;;;;;;5002989;28;20505;-80
2021/01/31 07:30:22;;;;;;;72.68;25.25;;;-4.40;99.90;;;;;;5019685;28;20143;-80
2021/01/31 07:33:11;;;;;;;79.20;26.23;;;-4.40;99.90;;;;;;5024030;28;20077;-80
2021/01/31 07:35:51;;;;;;;73.07;25.40;;;-4.40;99.90;;;;;;5013937;28;20044;-80
2021/01/31 07:38:24;;;;;;;78.10;22.38;;;-4.40;99.90;;;;;;5021329;28;20148;-77
2021/01/31 07:40:54;;;;;;;75.22;22.35;;;-4.40;99.90;;;;;;5028646;28;20533;-79
2021/01/31 07:43:23;;;;;;;74.88;23.50;;;-4.40;99.90;;;;;;5024745;28;20481;-79
2021/01/31 07:45:55;;;;;;;74.00;23.02;;;-4.40;99.90;;;;;;5025226;28;20063;-78
2021/01/31 07:48:50;;;;;;;70.88;23.45;;;-4.40;99.90;;;;;;5037251;28;20080;-78
2021/01/31 07:51:40;;;;;;;72.25;22.00;;;-4.40;99.90;;;;;;5028044;28;20056;-78
2021/01/31 07:54:27;;;;;;;68.45;21.63;;;-4.30;99.90;;;;;;5026773;28;20045;-78
2021/01/31 07:57:16;;;;;;;63.40;20.80;;;-4.20;99.90;;;;;;5027699;28;20088;-79
2021/01/31 07:59:43;;;;;;;60.45;20.85;;;-4.10;99.90;;;;;;5026444;28;20041;-78
2021/01/31 08:02:09;;;;;;;65.78;21.80;;;-4.10;99.90;;;;;;5022203;28;20053;-77
2021/01/31 08:04:36;;;;;;;64.07;22.67;;;-4.00;99.90;;;;;;5041427;28;20049;-79
2021/01/31 08:07:06;;;;;;;67.63;22.33;;;-3.90;99.90;;;;;;5027108;28;20456;-78
2021/01/31 08:09:34;;;;;;;68.68;21.65;;;-3.80;99.90;;;;;;5027068;28;20061;-78
2021/01/31 08:12:09;;;;;;;62.78;21.02;;;-3.80;99.90;;;;;;5027183;28;20121;-78
2021/01/31 08:15:11;;;;;;;64.32;20.73;;;-3.70;99.90;;;;;;5024103;28;20045;-78
2021/01/31 08:17:56;;;;;;;71.35;22.80;;;-3.60;99.90;;;;;;5022295;28;20049;-77
2021/01/31 08:20:28;;;;;;;;;;;-3.50;99.90;;;;;;5032066;28;20091;-79
2021/01/31 08:22:57;;;;;;;49.45;17.75;;;-3.40;99.90;;;;;;5024919;28;19997;-78
2021/01/31 08:25:28;;;;;;;58.78;19.35;;;-3.40;99.90;;;;;;5021932;28;20072;-78
2021/01/31 08:28:13;;;;;;;56.33;19.63;;;-3.30;99.90;;;;;;5034598;28;20122;-77
2021/01/31 08:30:42;;;;;;;76.13;28.73;;;-3.30;99.90;;;;;;5025519;28;20132;-79
2021/01/31 08:33:27;;;;;;;60.00;23.27;;;-3.20;99.90;;;;;;5025351;28;20045;-79
2021/01/31 08:35:57;;;;;;;53.55;21.45;;;-3.10;99.90;;;;;;5025224;28;20113;-77
2021/01/31 08:38:28;;;;;;;72.90;28.73;;;-3.10;99.90;;;;;;5033029;28;20049;-79
2021/01/31 08:41:00;;;;;;;55.50;19.70;;;-3.00;99.90;;;;;;5022824;28;20051;-77
2021/01/31 08:43:38;;;;;;;54.38;19.88;;;-2.90;99.90;;;;;;5026155;28;20055;-77
2021/01/31 08:46:29;;;;;;;89.07;39.88;;;-2.80;99.90;;;;;;5021835;28;20400;-79
2021/01/31 08:49:09;;;;;;;56.53;23.55;;;-2.70;99.90;;;;;;5017794;28;20049;-77
2021/01/31 08:51:41;;;;;;;47.95;20.65;;;-2.60;99.90;;;;;;5016072;28;20049;-78
2021/01/31 08:54:19;;;;;;;48.17;17.70;;;-2.60;99.90;;;;;;5017318;28;20060;-77
2021/01/31 08:57:00;;;;;;;49.92;20.50;;;-2.50;99.90;;;;;;5038841;28;20521;-78
2021/01/31 08:59:37;;;;;;;45.63;17.13;;;-2.40;99.90;;;;;;5023741;28;20056;-78
2021/01/31 09:02:18;;;;;;;39.47;15.07;;;-2.30;99.90;;;;;;5023415;28;20049;-78
2021/01/31 09:04:48;;;;;;;43.60;18.60;;;-2.20;99.90;;;;;;5034890;28;20084;-78
2021/01/31 09:07:26;;;;;;;43.08;18.05;;;-2.10;99.90;;;;;;5036936;28;20053;-77
2021/01/31 09:10:17;;;;;;;43.75;19.48;;;-2.10;99.90;;;;;;5035986;28;20057;-77
2021/01/31 09:12:43;;;;;;;40.35;16.13;;;-2.20;99.90;;;;;;5019672;28;20200;-78
2021/01/31 09:15:24;;;;;;;39.22;16.17;;;-2.20;99.90;;;;;;5021589;28;20140;-77
2021/01/31 09:17:51;;;;;;;41.22;15.55;;;-2.10;99.90;;;;;;5025091;28;20112;-79
2021/01/31 09:20:28;;;;;;;45.03;16.35;;;-2.10;99.90;;;;;;5026053;28;20490;-78
2021/01/31 09:22:59;;;;;;;40.28;15.57;;;-2.00;99.90;;;;;;5021993;28;20054;-78
2021/01/31 09:25:27;;;;;;;38.88;16.25;;;-2.00;99.90;;;;;;5014942;28;20053;-78
2021/01/31 09:28:00;;;;;;;38.13;15.20;;;-2.00;99.90;;;;;;5024048;28;20560;-79
2021/01/31 09:30:28;;;;;;;38.97;15.98;;;-1.90;99.90;;;;;;5024914;28;20144;-78
2021/01/31 09:33:22;;;;;;;35.17;15.88;;;-1.90;99.90;;;;;;5020116;28;20064;-77
2021/01/31 09:35:49;;;;;;;36.20;14.50;;;-1.90;99.90;;;;;;5028115;28;20071;-78
2021/01/31 09:38:27;;;;;;;32.00;13.80;;;-1.80;99.90;;;;;;5030417;28;20072;-80
2021/01/31 09:40:59;;;;;;;32.03;13.43;;;-1.60;99.90;;;;;;5027606;28;20437;-79
2021/01/31 09:43:28;;;;;;;35.00;15.32;;;-1.40;99.90;;;;;;5023601;28;20053;-78
2021/01/31 09:45:57;;;;;;;37.80;15.95;;;-1.10;99.90;;;;;;5023396;28;21628;-78
2021/01/31 09:48:30;;;;;;;33.42;14.07;;;-0.90;99.90;;;;;;5020240;28;20100;-78
2021/01/31 09:51:07;;;;;;;31.08;14.13;;;-0.60;99.90;;;;;;5027065;28;20488;-79
2021/01/31 09:53:41;;;;;;;31.15;14.57;;;-0.50;99.90;;;;;;5042943;28;20143;-79
2021/01/31 09:56:33;;;;;;;37.92;17.67;;;-0.30;99.90;;;;;;5023967;28;20055;-78
2021/01/31 09:59:05;;;;;;;33.10;14.30;;;-0.20;99.90;;;;;;5024545;28;20064;-79
2021/01/31 10:01:32;;;;;;;37.33;15.80;;;-0.30;99.90;;;;;;5025246;28;20045;-78
2021/01/31 10:04:06;;;;;;;39.00;17.77;;;-0.30;99.90;;;;;;5012424;28;20061;-78
2021/01/31 10:06:46;;;;;;;30.90;14.73;;;-0.30;99.90;;;;;;5036407;28;20044;-77
2021/01/31 10:09:25;;;;;;;30.65;14.38;;;-0.40;99.90;;;;;;5015180;28;20048;-78
2021/01/31 10:12:16;;;;;;;27.45;12.40;;;-0.40;99.90;;;;;;5021815;28;20045;-78
2021/01/31 10:14:45;;;;;;;29.00;14.25;;;-0.30;99.90;;;;;;5025177;28;20049;-78
2021/01/31 10:17:20;;;;;;;31.45;16.17;;;-0.30;99.90;;;;;;5014748;28;20053;-78
2021/01/31 10:20:07;;;;;;;31.80;13.85;;;-0.20;99.90;;;;;;5016274;28;20045;-77
2021/01/31 10:22:33;;;;;;;29.77;13.25;;;-0.20;99.90;;;;;;5022271;28;20050;-77
2021/01/31 10:24:59;;;;;;;26.73;12.80;;;-0.20;99.90;;;;;;5025668;28;20522;-78
2021/01/31 10:27:28;;;;;;;35.22;16.00;;;-0.10;99.90;;;;;;5023756;28;20133;-78
2021/01/31 10:30:16;;;;;;;44.20;25.38;;;-0.10;99.90;;;;;;5024273;28;20088;-79
2021/01/31 10:32:42;;;;;;;29.25;15.70;;;0.00;99.90;;;;;;5026532;28;20184;-78
2021/01/31 10:35:28;;;;;;;26.73;11.95;;;0.10;99.90;;;;;;5026404;28;20075;-79
2021/01/31 10:37:57;;;;;;;26.92;12.70;;;0.10;99.90;;;;;;5028402;28;20115;-79
2021/01/31 10:40:23;;;;;;;25.20;12.20;;;0.20;99.90;;;;;;5027559;28;20063;-77
2021/01/31 10:43:11;;;;;;;26.38;13.27;;;0.30;99.90;;;;;;5023404;28;20045;-77
2021/01/31 10:45:37;;;;;;;30.00;17.10;;;0.40;99.90;;;;;;5020662;28;20374;-78
2021/01/31 10:48:04;;;;;;;27.50;13.98;;;0.50;99.90;;;;;;5024186;28;20155;-77
2021/01/31 10:50:30;;;;;;;30.40;15.65;;;0.50;99.90;;;;;;5021198;28;20052;-76
2021/01/31 10:52:56;;;;;;;25.15;11.50;;;0.60;99.90;;;;;;5021181;28;20051;-76
2021/01/31 10:55:22;;;;;;;22.08;11.38;;;0.70;99.90;;;;;;5014459;28;20060;-76
2021/01/31 10:57:48;;;;;;;22.92;11.55;;;0.70;99.90;;;;;;5023860;28;20381;-76
2021/01/31 11:00:15;;;;;;;26.40;12.13;;;0.80;99.90;;;;;;5016570;28;20041;-77
2021/01/31 11:02:41;;;;;;;24.92;11.85;;;0.90;99.90;;;;;;5014550;28;20060;-77
2021/01/31 11:05:09;;;;;;;23.40;11.63;;;0.90;99.90;;;;;;5019283;28;20056;-77
2021/01/31 11:07:35;;;;;;;24.70;12.70;;;0.90;99.90;;;;;;5021585;28;20053;-76
2021/01/31 11:10:03;;;;;;;21.63;11.52;;;1.10;99.90;;;;;;5015048;28;20057;-76
2021/01/31 11:12:29;;;;;;;26.38;10.98;;;1.10;99.90;;;;;;5023257;28;20045;-77
2021/01/31 11:14:56;;;;;;;25.00;11.68;;;1.20;99.90;;;;;;5017764;28;20052;-77
2021/01/31 11:17:22;;;;;;;28.65;13.18;;;1.20;99.90;;;;;;5027800;28;20051;-77
2021/01/31 11:19:49;;;;;;;20.38;11.10;;;1.20;99.90;;;;;;5017858;28;20397;-77
2021/01/31 11:22:16;;;;;;;24.38;12.00;;;1.30;99.90;;;;;;5021351;28;20061;-78
2021/01/31 11:24:44;;;;;;;23.17;10.88;;;1.30;99.90;;;;;;5033098;28;20049;-77
2021/01/31 11:27:11;;;;;;;25.58;11.20;;;1.30;99.90;;;;;;5021262;28;20045;-77
2021/01/31 11:29:37;;;;;;;21.33;11.15;;;1.30;99.90;;;;;;5019160;28;20057;-76
2021/01/31 11:32:03;;;;;;;22.42;10.85;;;1.40;99.90;;;;;;5016059;28;20049;-76
2021/01/31 11:34:30;;;;;;;24.23;11.35;;;1.40;99.90;;;;;;5021329;28;21961;-77
2021/01/31 11:36:56;;;;;;;24.20;11.70;;;1.50;99.90;;;;;;5011054;28;20054;-75
2021/01/31 11:39:22;;;;;;;22.08;11.15;;;1.50;99.90;;;;;;5020579;28;20045;-76
2021/01/31 11:41:49;;;;;;;22.75;12.10;;;1.60;99.90;;;;;;5019044;28;20136;-77
2021/01/31 11:44:19;;;;;;;24.25;11.80;;;1.70;99.90;;;;;;5016811;28;20057;-76
2021/01/31 11:46:46;;;;;;;23.58;11.80;;;1.80;99.90;;;;;;5032354;28;20059;-78
2021/01/31 11:49:13;;;;;;;24.88;11.73;;;2.00;99.90;;;;;;5017084;28;20053;-77
2021/01/31 11:51:39;;;;;;;22.05;11.48;;;2.00;99.90;;;;;;5014966;28;20057;-76
2021/01/31 11:54:06;;;;;;;20.88;11.27;;;2.10;99.90;;;;;;5010812;28;20049;-75
2021/01/31 11:56:33;;;;;;;20.98;11.15;;;2.20;99.90;;;;;;5017835;28;20080;-75
2021/01/31 11:59:00;;;;;;;33.45;16.02;;;2.30;99.90;;;;;;5018476;28;20049;-76
2021/01/31 12:01:26;;;;;;;22.25;10.88;;;2.40;99.90;;;;;;5018433;28;20055;-75
2021/01/31 12:03:53;;;;;;;26.48;11.70;;;2.50;99.90;;;;;;5013986;28;20150;-77
2021/01/31 12:06:19;;;;;;;19.75;11.30;;;2.50;99.90;;;;;;5016320;28;20057;-76
2021/01/31 12:08:46;;;;;;;21.95;11.55;;;2.60;99.90;;;;;;5015349;28;20045;-77
2021/01/31 12:11:12;;;;;;;22.35;11.20;;;2.60;99.90;;;;;;5034059;28;20172;-77
2021/01/31 12:13:38;;;;;;;21.88;10.85;;;2.60;99.90;;;;;;5025714;28;20049;-77
2021/01/31 12:16:06;;;;;;;24.27;12.27;;;2.60;99.90;;;;;;5019581;28;20144;-77
2021/01/31 12:18:32;;;;;;;21.90;11.48;;;2.60;99.90;;;;;;5015628;28;20045;-76
2021/01/31 12:20:58;;;;;;;26.15;12.57;;;2.60;99.90;;;;;;5017686;28;20477;-79
2021/01/31 12:23:24;;;;;;;23.10;11.98;;;2.60;99.90;;;;;;5019486;28;20382;-78
2021/01/31 12:25:50;;;;;;;20.05;10.15;;;2.60;99.90;;;;;;5022362;28;20263;-77
2021/01/31 12:28:17;;;;;;;19.92;11.07;;;2.80;99.90;;;;;;5016573;28;20060;-78
2021/01/31 12:30:43;;;;;;;23.25;10.23;;;2.80;99.90;;;;;;5010447;28;20057;-77
2021/01/31 12:33:10;;;;;;;23.35;12.00;;;2.80;99.90;;;;;;5035546;28;20053;-76
2021/01/31 12:35:36;;;;;;;24.73;12.15;;;2.80;99.90;;;;;;5019219;28;20057;-77
2021/01/31 12:38:03;;;;;;;21.67;11.07;;;2.80;99.90;;;;;;5017904;28;20095;-77
2021/01/31 12:40:31;;;;;;;20.13;10.88;;;2.80;99.90;;;;;;5014551;28;20053;-77
2021/01/31 12:42:59;;;;;;;17.58;9.85;;;2.80;99.90;;;;;;5023535;28;20041;-77
2021/01/31 12:45:26;;;;;;;20.48;10.43;;;2.80;99.90;;;;;;5016970;28;20579;-77
2021/01/31 12:47:53;;;;;;;18.70;9.60;;;2.70;99.90;;;;;;5018888;28;20056;-77
2021/01/31 12:50:22;;;;;;;21.13;10.95;;;2.70;99.90;;;;;;5020555;28;20137;-77
2021/01/31 12:52:48;;;;;;;18.95;9.50;;;2.70;99.90;;;;;;5019871;28;20065;-76
2021/01/31 12:55:15;;;;;;;19.75;9.57;;;2.90;99.90;;;;;;5019084;28;20050;-77
2021/01/31 12:57:43;;;;;;;17.23;9.35;;;3.20;99.90;;;;;;5021066;28;20060;-78
2021/01/31 13:00:13;;;;;;;17.23;9.75;;;3.30;99.90;;;;;;5016389;28;20850;-76
2021/01/31 13:02:39;;;;;;;18.48;9.35;;;3.40;99.90;;;;;;5011521;28;20049;-77